createdAt,value
2023-04-28T00:01:16.465Z,7.80
2023-04-28T00:05:25.322Z,7.37
2023-04-28T00:09:34.167Z,7.43
2023-04-28T00:13:42.984Z,6.97
2023-04-28T00:17:51.760Z,8.20
2023-04-28T00:22:00.963Z,7.80
2023-04-28T00:26:09.794Z,8.10
2023-04-28T00:30:18.562Z,8.27
2023-04-28T00:34:27.174Z,9.43
2023-04-28T00:38:36.105Z,8.30
2023-04-28T00:42:44.709Z,9.30
2023-04-28T00:46:53.465Z,8.00
2023-04-28T00:51:03.102Z,8.30
2023-04-28T00:55:12.044Z,8.87
2023-04-28T00:59:20.671Z,8.50
2023-04-28T01:03:30.063Z,9.90
2023-04-28T01:07:40.282Z,9.37
2023-04-28T01:11:49.012Z,10.10
2023-04-28T01:15:58.048Z,9.87
2023-04-28T01:20:08.025Z,9.20
2023-04-28T01:24:17.513Z,9.47
2023-04-28T01:28:26.907Z,10.30
2023-04-28T01:32:35.573Z,10.33
2023-04-28T01:36:44.268Z,9.13
2023-04-28T01:40:54.535Z,10.03
2023-04-28T01:45:05.103Z,10.47
2023-04-28T01:49:13.734Z,9.67
2023-04-28T01:53:22.362Z,9.47
2023-04-28T01:57:30.989Z,9.73
2023-04-28T02:01:40.148Z,9.73
2023-04-28T02:05:48.822Z,9.40
2023-04-28T02:09:57.452Z,10.20
2023-04-28T02:14:06.050Z,8.70
2023-04-28T02:18:14.639Z,11.33
2023-04-28T02:22:23.544Z,11.17
2023-04-28T02:26:32.575Z,10.73
2023-04-28T02:30:41.451Z,11.33
2023-04-28T02:34:57.397Z,11.80
2023-04-28T02:39:06.077Z,9.33
2023-04-28T02:43:14.708Z,9.37
2023-04-28T02:47:23.337Z,11.00
2023-04-28T02:51:31.986Z,10.17
2023-04-28T02:55:40.698Z,11.07
2023-04-28T03:04:00.017Z,9.57
2023-04-28T03:08:09.071Z,9.40
2023-04-28T03:12:17.704Z,9.43
2023-04-28T03:16:26.562Z,10.27
2023-04-28T03:20:35.196Z,10.63
2023-04-28T03:24:43.886Z,9.50
2023-04-28T03:28:53.126Z,9.93
2023-04-28T03:33:01.923Z,9.40
2023-04-28T03:37:11.004Z,10.57
2023-04-28T03:41:19.627Z,11.07
2023-04-28T03:45:28.217Z,10.70
2023-04-28T03:49:36.824Z,10.40
2023-04-28T03:53:45.470Z,10.53
2023-04-28T03:57:54.241Z,13.23
2023-04-28T04:02:02.878Z,11.13
2023-04-28T04:06:11.483Z,11.70
2023-04-28T04:10:20.234Z,10.80
2023-04-28T04:14:28.864Z,10.05
2023-04-28T04:18:37.490Z,11.13
2023-04-28T04:22:46.122Z,9.73
2023-04-28T04:26:54.756Z,9.33
2023-04-28T04:31:03.404Z,9.47
2023-04-28T04:35:12.217Z,8.47
2023-04-28T04:39:20.841Z,8.33
2023-04-28T04:43:29.466Z,7.90
2023-04-28T04:47:58.224Z,8.77
2023-04-28T04:52:07.011Z,8.50
2023-04-28T04:56:15.942Z,9.17
2023-04-28T05:00:24.565Z,10.60
2023-04-28T05:04:33.391Z,11.47
2023-04-28T05:08:42.140Z,11.87
2023-04-28T05:12:50.966Z,10.27
2023-04-28T05:16:59.856Z,10.30
2023-04-28T05:21:08.738Z,10.20
2023-04-28T05:25:17.632Z,9.83
2023-04-28T05:29:26.412Z,9.70
2023-04-28T05:33:35.095Z,10.60
2023-04-28T05:37:44.980Z,7.37
2023-04-28T05:41:53.607Z,8.37
2023-04-28T05:46:02.704Z,10.30
2023-04-28T05:50:11.750Z,8.60
2023-04-28T05:54:20.434Z,8.70
2023-04-28T05:58:29.671Z,9.30
2023-04-28T06:02:38.516Z,7.67
2023-04-28T06:06:47.746Z,7.90
2023-04-28T06:10:56.379Z,7.43
2023-04-28T06:15:06.447Z,8.17
2023-04-28T06:19:16.808Z,7.70
2023-04-28T06:23:25.435Z,8.80
2023-04-28T06:27:34.071Z,7.40
2023-04-28T06:31:42.817Z,8.05
2023-04-28T06:35:52.040Z,8.23
2023-04-28T06:40:00.616Z,7.80
2023-04-28T06:44:09.337Z,7.70
2023-04-28T06:48:18.128Z,9.03
2023-04-28T06:52:38.442Z,8.60
2023-04-28T06:56:38.559Z,7.17
2023-04-28T07:00:47.198Z,8.80
2023-04-28T07:04:56.025Z,8.20
2023-04-28T07:09:04.722Z,7.90
2023-04-28T07:13:13.332Z,8.60
2023-04-28T07:17:21.948Z,8.17
2023-04-28T07:21:30.562Z,7.87
2023-04-28T07:25:40.848Z,7.60
2023-04-28T07:29:49.663Z,8.40
2023-04-28T07:33:58.209Z,8.63
2023-04-28T07:38:07.003Z,8.27
2023-04-28T07:42:15.736Z,7.50
2023-04-28T07:46:24.486Z,8.17
2023-04-28T07:50:33.773Z,9.90
2023-04-28T07:54:42.443Z,7.70
2023-04-28T07:58:51.982Z,7.97
2023-04-28T08:03:00.687Z,8.00
2023-04-28T08:07:10.466Z,8.97
2023-04-28T08:11:19.094Z,8.97
2023-04-28T08:15:30.332Z,8.77
2023-04-28T08:19:39.117Z,9.10
2023-04-28T08:23:47.746Z,10.50
2023-04-28T08:27:57.633Z,9.67
2023-04-28T08:32:06.861Z,9.83
2023-04-28T08:36:15.783Z,9.43
2023-04-28T08:40:25.338Z,9.43
2023-04-28T08:44:40.681Z,9.90
2023-04-28T08:48:50.801Z,9.67
2023-04-28T08:52:59.588Z,7.50
2023-04-28T08:57:11.274Z,8.80
2023-04-28T09:01:19.974Z,8.67
2023-04-28T09:05:28.708Z,7.63
2023-04-28T09:09:39.156Z,8.80
2023-04-28T09:13:47.774Z,9.43
2023-04-28T09:17:56.460Z,10.50
2023-04-28T09:22:17.711Z,13.63
2023-04-28T09:26:18.112Z,9.30
2023-04-28T09:30:41.730Z,8.60
2023-04-28T09:34:53.565Z,8.50
2023-04-28T09:39:03.006Z,8.60
2023-04-28T09:43:26.180Z,8.87
2023-04-28T09:47:37.996Z,10.10
2023-04-28T09:51:46.604Z,9.13
2023-04-28T09:56:14.589Z,8.40
2023-04-28T10:00:24.605Z,10.63
2023-04-28T10:04:33.869Z,8.87
2023-04-28T10:08:42.941Z,8.30
2023-04-28T10:12:52.412Z,8.07
2023-04-28T10:17:03.142Z,9.07
2023-04-28T10:21:15.539Z,8.67
2023-04-28T10:25:29.747Z,7.80
2023-04-28T10:29:38.437Z,7.90
2023-04-28T10:33:47.035Z,9.87
2023-04-28T10:38:15.301Z,8.87
2023-04-28T10:42:53.016Z,9.80
2023-04-28T10:47:09.709Z,9.43
2023-04-28T10:51:22.527Z,10.30
2023-04-28T10:55:52.893Z,12.27
2023-04-28T11:00:07.660Z,10.90
2023-04-28T11:04:18.173Z,10.17
2023-04-28T11:08:33.386Z,11.70
2023-04-28T11:13:20.129Z,11.50
2023-04-28T11:17:37.972Z,10.32
2023-04-28T11:21:48.135Z,11.77
2023-04-28T11:25:58.177Z,10.47
2023-04-28T11:30:27.814Z,10.40
2023-04-28T11:34:37.745Z,10.27
2023-04-28T11:38:47.117Z,10.00
2023-04-28T11:42:58.334Z,9.45
2023-04-28T11:47:07.868Z,8.93
2023-04-28T11:51:36.456Z,7.77
2023-04-28T11:55:45.601Z,8.20
2023-04-28T11:59:54.656Z,8.63
2023-04-28T12:04:03.494Z,8.50
2023-04-28T12:08:12.302Z,7.67
2023-04-28T12:12:40.545Z,8.70
2023-04-28T12:16:44.584Z,8.30
2023-04-28T12:20:54.072Z,8.00
2023-04-28T12:25:13.060Z,9.30
2023-04-28T12:29:41.777Z,8.63
2023-04-28T12:33:50.750Z,9.33
2023-04-28T12:38:00.423Z,8.50
2023-04-28T12:42:09.506Z,7.70
2023-04-28T12:46:18.260Z,7.50
2023-04-28T12:50:27.845Z,7.77
2023-04-28T12:54:36.828Z,8.40
2023-04-28T12:58:45.527Z,8.53
2023-04-28T13:02:54.558Z,7.60
2023-04-28T13:07:04.716Z,7.57
2023-04-28T13:11:22.611Z,8.17
2023-04-28T13:15:24.957Z,8.10
2023-04-28T13:19:34.290Z,7.97
2023-04-28T13:23:42.920Z,8.40
2023-04-28T13:27:52.063Z,6.60
2023-04-28T13:32:00.768Z,7.50
2023-04-28T13:36:10.137Z,8.60
2023-04-28T13:40:19.218Z,9.30
2023-04-28T13:44:27.903Z,8.40
2023-04-28T13:48:37.075Z,8.40
2023-04-28T13:52:45.684Z,7.97
2023-04-28T13:56:55.176Z,7.63
2023-04-28T14:01:04.545Z,9.27
2023-04-28T14:05:13.505Z,7.13
2023-04-28T14:09:22.232Z,8.20
2023-04-28T14:13:30.858Z,7.57
2023-04-28T14:17:39.564Z,7.80
2023-04-28T14:21:48.626Z,8.30
2023-04-28T14:25:58.060Z,8.23
2023-04-28T14:30:08.683Z,6.77
2023-04-28T14:34:17.275Z,6.30
2023-04-28T14:38:25.915Z,6.40
2023-04-28T14:42:37.097Z,5.60
2023-04-28T14:46:45.786Z,5.37
2023-04-28T14:50:54.659Z,6.60
2023-04-28T14:55:05.244Z,7.40
2023-04-28T14:59:14.194Z,7.47
2023-04-28T15:03:22.904Z,7.50
2023-04-28T15:07:32.700Z,8.10
2023-04-28T15:11:41.516Z,7.03
2023-04-28T15:15:51.645Z,8.17
2023-04-28T15:20:00.529Z,7.40
2023-04-28T15:24:09.122Z,6.73
2023-04-28T15:28:17.749Z,5.90
2023-04-28T15:32:27.331Z,6.43
2023-04-28T15:36:40.624Z,7.40
2023-04-28T15:40:49.878Z,7.07
2023-04-28T15:44:58.860Z,5.80
2023-04-28T15:49:11.020Z,6.90
2023-04-28T15:53:22.345Z,6.27
2023-04-28T15:57:30.969Z,6.10
2023-04-28T16:01:39.611Z,7.27
2023-04-28T16:05:48.360Z,6.27
2023-04-28T16:09:57.045Z,6.07
2023-04-28T16:14:05.686Z,5.97
2023-04-28T16:18:14.398Z,5.73
2023-04-28T16:22:23.197Z,5.60
2023-04-28T16:26:32.075Z,7.67
2023-04-28T16:30:41.009Z,6.70
2023-04-28T16:34:49.883Z,6.60
2023-04-28T16:38:58.781Z,6.03
2023-04-28T16:43:07.522Z,6.87
2023-04-28T16:47:16.249Z,6.03
2023-04-28T16:51:24.867Z,6.10
2023-04-28T16:55:33.525Z,7.03
2023-04-28T16:59:42.228Z,7.30
2023-04-28T17:03:52.325Z,8.30
2023-04-28T17:08:01.529Z,7.10
2023-04-28T17:12:14.186Z,6.13
2023-04-28T17:16:27.702Z,8.47
2023-04-28T17:20:36.428Z,6.87
2023-04-28T17:24:45.911Z,9.20
2023-04-28T17:29:13.937Z,9.43
2023-04-28T17:33:22.691Z,9.63
2023-04-28T17:37:35.583Z,8.80
2023-04-28T17:41:45.214Z,8.90
2023-04-28T17:45:54.836Z,9.13
2023-04-28T17:50:06.678Z,9.00
2023-04-28T17:54:15.462Z,8.73
2023-04-28T17:58:43.452Z,9.40
2023-04-28T18:02:55.068Z,10.10
2023-04-28T18:07:06.725Z,8.50
2023-04-28T18:11:15.409Z,7.67
2023-04-28T18:15:24.104Z,6.67
2023-04-28T18:19:32.655Z,6.97
2023-04-28T18:23:41.500Z,6.30
2023-04-28T18:27:50.602Z,6.40
2023-04-28T18:31:59.261Z,7.37
2023-04-28T18:36:08.079Z,6.70
2023-04-28T18:40:16.913Z,7.47
2023-04-28T18:44:25.627Z,7.07
2023-04-28T18:48:34.673Z,7.00
2023-04-28T18:53:04.193Z,7.30
2023-04-28T18:57:12.920Z,6.30
2023-04-28T19:01:24.935Z,6.63
2023-04-28T19:05:34.583Z,6.53
2023-04-28T19:09:43.210Z,7.20
2023-04-28T19:13:52.859Z,8.50
2023-04-28T19:18:02.236Z,7.43
2023-04-28T19:22:40.208Z,7.03
2023-04-28T19:26:49.310Z,8.27
2023-04-28T19:30:59.315Z,8.33
2023-04-28T19:35:09.322Z,7.50
2023-04-28T19:39:18.022Z,8.10
2023-04-28T19:43:26.903Z,7.90
2023-04-28T19:47:36.852Z,9.83
2023-04-28T19:51:45.747Z,9.13
2023-04-28T19:55:54.800Z,9.97
2023-04-28T20:00:03.408Z,9.70
2023-04-28T20:04:14.267Z,9.40
2023-04-28T20:08:24.721Z,9.70
2023-04-28T20:12:33.370Z,10.50
2023-04-28T20:16:42.305Z,10.23
2023-04-28T20:20:53.074Z,8.47
2023-04-28T20:25:03.687Z,8.53
2023-04-28T20:29:12.522Z,8.77
2023-04-28T20:33:23.013Z,9.23
2023-04-28T20:37:31.985Z,8.63
2023-04-28T20:41:42.228Z,8.50
2023-04-28T20:45:51.001Z,8.37
2023-04-28T20:49:59.655Z,8.23
2023-04-28T20:54:08.488Z,7.43
2023-04-28T20:58:17.123Z,9.70
2023-04-28T21:02:26.140Z,8.90
2023-04-28T21:06:34.889Z,8.10
2023-04-28T21:10:43.439Z,9.03
2023-04-28T21:14:52.073Z,7.27
2023-04-28T21:19:01.094Z,8.40
2023-04-28T21:23:28.974Z,9.50
2023-04-28T21:27:37.611Z,8.77
2023-04-28T21:31:47.009Z,9.70
2023-04-28T21:35:56.090Z,10.10
2023-04-28T21:40:06.645Z,9.17
2023-04-28T21:44:16.506Z,9.23
2023-04-28T21:48:25.041Z,8.53
2023-04-28T21:52:33.768Z,7.83
2023-04-28T21:56:42.495Z,11.87
2023-04-28T22:00:52.190Z,10.10
2023-04-28T22:05:00.905Z,10.73
2023-04-28T22:09:09.992Z,11.73
2023-04-28T22:13:18.598Z,11.23
2023-04-28T22:17:27.482Z,10.40
2023-04-28T22:21:36.128Z,13.37
2023-04-28T22:25:46.394Z,12.50
2023-04-28T22:29:54.996Z,12.80
2023-04-28T22:34:05.276Z,11.23
2023-04-28T22:38:15.846Z,13.27
2023-04-28T22:42:24.586Z,14.27
2023-04-28T22:46:33.276Z,13.40
2023-04-28T22:50:43.573Z,15.57
2023-04-28T22:54:53.538Z,14.60
2023-04-28T22:59:03.117Z,14.63
2023-04-28T23:03:12.058Z,17.37
2023-04-28T23:07:20.868Z,18.77
2023-04-28T23:11:29.798Z,16.20
2023-04-28T23:15:38.417Z,19.37
2023-04-28T23:19:47.049Z,20.70
2023-04-28T23:23:55.975Z,18.53
2023-04-28T23:28:04.849Z,16.63
2023-04-28T23:32:13.556Z,18.80
2023-04-28T23:36:24.230Z,21.03
2023-04-28T23:40:32.867Z,21.20
2023-04-28T23:44:41.688Z,17.30
2023-04-28T23:48:50.834Z,18.43
2023-04-28T23:52:59.466Z,20.43
2023-04-28T23:57:08.020Z,21.40
